Time;durP1;ratioP1;P1;durP2;ratioP2;P2;SDS_P1;SDS_P2;PMS_P1;PMS_P2;Temp;Humidity;BMP_temperature;BMP_pressure;BME280_temperature;BME280_humidity;BME280_pressure;Samples;Min_cycle;Max_cycle;Signal;HPM_P1;HPM_P2
2022/08/03 00:00:23;;;;;;;3.55;2.67;;;20.30;99.90;;;;;;5050377;28;20722;-67
2022/08/03 00:02:49;;;;;;;2.95;2.60;;;20.10;99.90;;;;;;5058317;28;20206;-68
2022/08/03 00:05:16;;;;;;;3.90;3.10;;;20.10;99.90;;;;;;5052321;28;20636;-68
2022/08/03 00:07:43;;;;;;;3.23;2.80;;;20.30;99.90;;;;;;5054812;28;20295;-67
2022/08/03 00:10:11;;;;;;;3.00;2.70;;;20.20;99.90;;;;;;5054263;28;20611;-68
2022/08/03 00:12:38;;;;;;;3.13;2.60;;;20.10;99.90;;;;;;5056312;28;20195;-68
2022/08/03 00:15:05;;;;;;;3.90;2.73;;;20.00;99.90;;;;;;5053472;28;20190;-67
2022/08/03 00:17:41;;;;;;;4.33;3.00;;;19.90;99.90;;;;;;5057251;28;20293;-68
2022/08/03 00:20:20;;;;;;;5.47;3.10;;;19.80;99.90;;;;;;5056502;28;20760;-68
2022/08/03 00:22:46;;;;;;;3.10;2.80;;;19.90;99.90;;;;;;5053400;28;20199;-68
2022/08/03 00:25:13;;;;;;;4.63;2.40;;;20.00;99.90;;;;;;5057862;28;20206;-68
2022/08/03 00:27:40;;;;;;;4.07;2.60;;;20.20;99.90;;;;;;5057084;28;20218;-68
2022/08/03 00:30:07;;;;;;;4.33;2.60;;;20.20;99.90;;;;;;5058135;28;20552;-67
2022/08/03 00:32:34;;;;;;;6.10;2.63;;;20.30;99.90;;;;;;5051520;28;20203;-68
2022/08/03 00:35:00;;;;;;;4.13;2.30;;;20.20;99.90;;;;;;5053077;28;20190;-68
2022/08/03 00:37:35;;;;;;;2.90;2.50;;;20.10;99.90;;;;;;5055896;28;20233;-68
2022/08/03 00:40:12;;;;;;;3.27;2.50;;;19.90;99.90;;;;;;5054444;28;20226;-67
2022/08/03 00:42:52;;;;;;;3.70;2.50;;;19.80;99.90;;;;;;5056796;28;20218;-68
2022/08/03 00:45:21;;;;;;;3.43;3.10;;;19.90;99.90;;;;;;5056838;28;20214;-68
2022/08/03 00:47:48;;;;;;;3.00;2.60;;;20.00;99.90;;;;;;5056759;28;20222;-68
2022/08/03 00:50:16;;;;;;;2.73;2.53;;;20.10;99.90;;;;;;5052909;28;20194;-67
2022/08/03 00:52:43;;;;;;;3.40;2.90;;;20.00;99.90;;;;;;5057268;28;20195;-68
2022/08/03 00:55:10;;;;;;;3.23;2.77;;;20.00;99.90;;;;;;5058471;28;20190;-67
2022/08/03 00:57:37;;;;;;;2.93;2.63;;;19.90;99.90;;;;;;5055260;28;20233;-67
2022/08/03 01:00:07;;;;;;;3.63;2.83;;;19.70;99.90;;;;;;5060224;28;20632;-67
2022/08/03 01:02:33;;;;;;;4.37;2.63;;;19.70;99.90;;;;;;5060691;28;20203;-68
2022/08/03 01:05:00;;;;;;;4.13;2.50;;;19.60;99.90;;;;;;5063727;28;20198;-68
2022/08/03 01:08:02;;;;;;;3.53;2.80;;;19.40;99.90;;;;;;5059313;28;20211;-68
2022/08/03 01:11:08;;;;;;;3.53;2.77;;;19.40;99.90;;;;;;5039785;28;20214;-68
2022/08/03 01:13:59;;;;;;;2.80;2.60;;;19.40;99.90;;;;;;5057278;28;20209;-68
2022/08/03 01:16:54;;;;;;;2.87;2.57;;;19.40;99.90;;;;;;5059568;28;20662;-68
2022/08/03 01:19:38;;;;;;;4.07;2.70;;;19.60;99.90;;;;;;5061168;28;20292;-67
2022/08/03 01:22:27;;;;;;;3.80;3.00;;;19.50;99.90;;;;;;5053071;28;20206;-68
2022/08/03 01:25:25;;;;;;;4.50;2.87;;;19.60;99.90;;;;;;5063093;28;20245;-68
2022/08/03 01:28:29;;;;;;;3.47;2.80;;;19.50;99.90;;;;;;5053955;28;20573;-68
2022/08/03 01:31:03;;;;;;;4.80;3.00;;;19.20;99.90;;;;;;5058709;28;20214;-68
2022/08/03 01:33:37;;;;;;;3.47;2.77;;;19.20;99.90;;;;;;5056285;28;20206;-68
2022/08/03 01:36:11;;;;;;;3.90;2.93;;;19.20;99.90;;;;;;5041508;28;20198;-68
2022/08/03 01:38:43;;;;;;;4.90;2.70;;;19.20;99.90;;;;;;5060633;28;20264;-67
2022/08/03 01:41:13;;;;;;;3.80;2.97;;;19.30;99.90;;;;;;5045010;28;20210;-67
2022/08/03 01:43:44;;;;;;;3.60;2.90;;;19.20;99.90;;;;;;5052744;28;20195;-67
2022/08/03 01:46:32;;;;;;;3.03;2.60;;;19.00;99.90;;;;;;5049475;28;20261;-68
2022/08/03 01:48:59;;;;;;;3.13;2.80;;;18.90;99.90;;;;;;5046926;28;20225;-68
2022/08/03 01:51:37;;;;;;;3.67;2.60;;;19.00;99.90;;;;;;5049246;28;20593;-68
2022/08/03 01:54:25;;;;;;;3.57;2.37;;;19.30;99.90;;;;;;5052117;28;20599;-66
2022/08/03 01:56:55;;;;;;;4.20;2.80;;;19.30;99.90;;;;;;5048526;28;20202;-68
2022/08/03 01:59:24;;;;;;;3.03;2.73;;;19.30;99.90;;;;;;5052652;28;20202;-68
2022/08/03 02:01:52;;;;;;;2.40;2.20;;;19.10;99.90;;;;;;5051320;28;20223;-68
2022/08/03 02:04:41;;;;;;;3.10;2.77;;;19.10;99.90;;;;;;5050072;28;20241;-68
2022/08/03 02:07:09;;;;;;;3.47;2.40;;;19.10;99.90;;;;;;5050492;28;20195;-67
2022/08/03 02:09:40;;;;;;;2.73;2.53;;;19.00;99.90;;;;;;5052319;28;20248;-68
2022/08/03 02:12:12;;;;;;;3.03;2.70;;;19.10;99.90;;;;;;5052289;28;20215;-67
2022/08/03 02:14:42;;;;;;;4.47;2.63;;;19.20;99.90;;;;;;5051177;28;20329;-68
2022/08/03 02:17:09;;;;;;;3.03;2.70;;;19.20;99.90;;;;;;5063210;28;20191;-67
2022/08/03 02:19:37;;;;;;;3.23;2.80;;;19.10;99.90;;;;;;5063555;28;20203;-68
2022/08/03 02:22:07;;;;;;;3.37;2.50;;;18.90;99.90;;;;;;5057556;28;20587;-68
2022/08/03 02:24:33;;;;;;;3.20;2.53;;;18.70;99.90;;;;;;5050871;28;20228;-68
2022/08/03 02:27:03;;;;;;;3.50;2.70;;;18.60;99.90;;;;;;5052126;28;20194;-68
2022/08/03 02:29:33;;;;;;;4.50;2.63;;;18.50;99.90;;;;;;5052138;28;20218;-67
2022/08/03 02:32:10;;;;;;;4.13;2.97;;;18.60;99.90;;;;;;5049830;28;20250;-68
2022/08/03 02:34:40;;;;;;;3.53;2.70;;;18.70;99.90;;;;;;5052376;28;20198;-68
2022/08/03 02:37:09;;;;;;;5.27;2.83;;;18.60;99.90;;;;;;5052375;28;20191;-68
2022/08/03 02:39:37;;;;;;;3.93;2.70;;;18.60;99.90;;;;;;5049978;28;20240;-68
2022/08/03 02:42:06;;;;;;;2.97;2.67;;;18.60;99.90;;;;;;5051844;28;20222;-68
2022/08/03 02:44:34;;;;;;;3.03;2.63;;;18.40;99.90;;;;;;5052128;28;20673;-68
2022/08/03 02:47:05;;;;;;;2.93;2.63;;;18.20;99.90;;;;;;5052173;28;20199;-68
2022/08/03 02:49:34;;;;;;;4.37;2.93;;;18.30;99.90;;;;;;5046925;28;20760;-68
2022/08/03 02:52:18;;;;;;;3.73;2.80;;;18.40;99.90;;;;;;5049852;28;20260;-68
2022/08/03 02:54:47;;;;;;;4.20;3.10;;;18.60;99.90;;;;;;5051907;28;20220;-67
2022/08/03 02:57:15;;;;;;;4.97;2.97;;;18.70;99.90;;;;;;5051649;28;20655;-68
2022/08/03 02:59:43;;;;;;;3.70;3.00;;;18.80;99.90;;;;;;5047330;28;20203;-68
2022/08/03 03:02:11;;;;;;;3.70;3.00;;;18.80;99.90;;;;;;5051154;28;20633;-67
2022/08/03 03:04:38;;;;;;;4.13;2.90;;;18.80;99.90;;;;;;5051798;28;20205;-68
2022/08/03 03:07:25;;;;;;;3.27;2.80;;;18.70;99.90;;;;;;5047880;28;20202;-67
2022/08/03 03:09:55;;;;;;;5.07;2.90;;;18.60;99.90;;;;;;5051754;28;20264;-68
2022/08/03 03:12:24;;;;;;;3.27;2.97;;;18.30;99.90;;;;;;5051676;28;20214;-68
2022/08/03 03:14:51;;;;;;;5.07;3.20;;;18.20;99.90;;;;;;5038583;28;20191;-68
2022/08/03 03:17:19;;;;;;;4.17;3.00;;;18.10;99.90;;;;;;5051564;28;20195;-67
2022/08/03 03:19:47;;;;;;;3.20;2.83;;;18.10;99.90;;;;;;5041349;28;20613;-67
2022/08/03 03:22:15;;;;;;;2.87;2.57;;;18.20;99.90;;;;;;5050791;28;20301;-68
2022/08/03 03:24:44;;;;;;;4.30;3.10;;;18.30;99.90;;;;;;5046502;28;20281;-68
2022/08/03 03:27:13;;;;;;;3.10;2.80;;;18.20;99.90;;;;;;5051352;28;20221;-68
2022/08/03 03:29:42;;;;;;;4.97;3.00;;;18.10;99.90;;;;;;5051223;28;20219;-67
2022/08/03 03:32:09;;;;;;;5.47;3.10;;;18.20;99.90;;;;;;5050919;28;20296;-67
2022/08/03 03:34:36;;;;;;;4.67;3.17;;;18.30;99.90;;;;;;5049847;28;20567;-67
2022/08/03 03:37:04;;;;;;;5.13;3.07;;;18.40;99.90;;;;;;5050993;28;20194;-68
2022/08/03 03:39:30;;;;;;;3.20;2.90;;;18.40;99.90;;;;;;5050746;28;20206;-67
2022/08/03 03:41:58;;;;;;;3.33;2.70;;;18.40;99.90;;;;;;5048563;28;20724;-68
2022/08/03 03:44:29;;;;;;;3.17;2.87;;;18.40;99.90;;;;;;5051482;28;20205;-67
2022/08/03 03:46:59;;;;;;;5.63;2.93;;;18.20;99.90;;;;;;5050897;28;20207;-68
2022/08/03 03:49:26;;;;;;;4.90;3.20;;;18.10;99.90;;;;;;5050662;28;20215;-67
2022/08/03 03:51:54;;;;;;;5.37;2.97;;;18.30;99.90;;;;;;5049854;28;20625;-67
2022/08/03 03:54:21;;;;;;;4.07;3.40;;;18.30;99.90;;;;;;5050837;28;20533;-68
2022/08/03 03:56:51;;;;;;;4.93;3.10;;;18.30;99.90;;;;;;5050745;28;20195;-67
2022/08/03 03:59:18;;;;;;;5.20;3.03;;;18.30;99.90;;;;;;5046839;28;20686;-67
2022/08/03 04:01:44;;;;;;;6.10;3.43;;;18.30;99.90;;;;;;5050019;28;20222;-68
2022/08/03 04:12:42;;;;;;;5.20;3.33;;;18.20;99.90;;;;;;5047402;28;20199;-68
2022/08/03 04:15:19;;;;;;;5.90;2.97;;;18.20;99.90;;;;;;5050582;28;20230;-67
2022/08/03 04:17:47;;;;;;;3.53;3.13;;;18.10;99.90;;;;;;5047836;28;20241;-68
2022/08/03 04:20:16;;;;;;;6.70;3.67;;;18.00;99.90;;;;;;5049908;28;20199;-67
2022/08/03 04:22:44;;;;;;;3.50;3.10;;;18.00;99.90;;;;;;5050350;28;20191;-67
2022/08/03 04:25:16;;;;;;;4.97;3.40;;;18.10;99.90;;;;;;5049246;28;20217;-67
2022/08/03 04:27:45;;;;;;;3.93;3.37;;;18.20;99.90;;;;;;5050327;28;20720;-67
2022/08/03 04:30:34;;;;;;;4.57;2.73;;;18.30;99.90;;;;;;5049710;28;20227;-67
2022/08/03 04:33:02;;;;;;;9.47;3.80;;;18.30;99.90;;;;;;5038459;28;20195;-67
2022/08/03 04:35:32;;;;;;;4.40;3.10;;;18.40;99.90;;;;;;5049102;28;20260;-67
2022/08/03 04:38:19;;;;;;;3.37;2.97;;;18.50;99.90;;;;;;5050000;28;20202;-67
2022/08/03 04:40:46;;;;;;;3.37;3.07;;;18.40;99.90;;;;;;5044873;28;20775;-67
2022/08/03 04:43:17;;;;;;;3.83;2.87;;;18.30;99.90;;;;;;5050045;28;20503;-68
2022/08/03 04:45:46;;;;;;;5.47;2.80;;;18.30;99.90;;;;;;5050451;28;20201;-68
2022/08/03 04:48:14;;;;;;;3.87;2.77;;;18.20;99.90;;;;;;5046252;28;20218;-68
2022/08/03 04:50:41;;;;;;;5.43;3.30;;;18.20;99.90;;;;;;5050251;28;20214;-68
2022/08/03 04:53:08;;;;;;;3.13;2.70;;;18.30;99.90;;;;;;5049594;28;20570;-68
2022/08/03 04:55:35;;;;;;;4.60;3.50;;;18.40;99.90;;;;;;5050600;28;20191;-68
2022/08/03 04:58:03;;;;;;;3.70;3.33;;;18.40;99.90;;;;;;5047494;28;20195;-67
2022/08/03 05:00:30;;;;;;;3.77;3.07;;;18.60;99.90;;;;;;5049739;28;20577;-68
2022/08/03 05:02:57;;;;;;;5.60;3.20;;;18.70;99.90;;;;;;5050639;28;20194;-68
2022/08/03 05:05:24;;;;;;;3.97;3.10;;;18.80;99.90;;;;;;5049441;28;20191;-66
2022/08/03 05:07:51;;;;;;;3.93;3.10;;;18.80;99.90;;;;;;5048565;28;20413;-68
2022/08/03 05:10:18;;;;;;;5.33;3.43;;;18.80;99.90;;;;;;5048808;28;20226;-67
2022/08/03 05:12:47;;;;;;;3.93;3.23;;;18.90;99.90;;;;;;5050116;28;20264;-68
2022/08/03 05:15:14;;;;;;;3.80;3.27;;;19.00;99.90;;;;;;5050000;28;20191;-68
2022/08/03 05:17:41;;;;;;;4.93;3.40;;;19.10;99.90;;;;;;5048303;28;20218;-68
2022/08/03 05:20:09;;;;;;;5.03;3.40;;;19.10;99.90;;;;;;5049365;28;20199;-68
2022/08/03 05:22:35;;;;;;;11.20;3.73;;;19.10;99.90;;;;;;5049176;28;20228;-68
2022/08/03 05:25:02;;;;;;;4.70;3.43;;;19.20;99.90;;;;;;5047508;28;20245;-68
2022/08/03 05:27:29;;;;;;;6.80;3.97;;;19.40;99.90;;;;;;5049185;28;20203;-68
2022/08/03 05:29:56;;;;;;;9.33;3.80;;;19.60;99.90;;;;;;5049392;28;20225;-67
2022/08/03 05:32:42;;;;;;;5.87;3.67;;;19.60;99.90;;;;;;5046475;28;20199;-68
2022/08/03 05:35:09;;;;;;;9.70;3.60;;;19.60;99.90;;;;;;5049447;28;20188;-67
2022/08/03 05:37:56;;;;;;;5.93;3.80;;;19.70;99.90;;;;;;5048985;28;20207;-68
2022/08/03 05:40:22;;;;;;;8.63;3.93;;;19.70;99.90;;;;;;5048737;28;20740;-68
2022/08/03 05:42:49;;;;;;;5.70;3.90;;;19.90;99.90;;;;;;5044813;28;20195;-68
2022/08/03 05:45:18;;;;;;;5.23;3.70;;;20.10;99.90;;;;;;5049383;28;20639;-68
2022/08/03 05:47:45;;;;;;;5.53;3.50;;;20.20;99.90;;;;;;5053270;28;20194;-68
2022/08/03 05:50:13;;;;;;;5.53;3.60;;;20.20;99.90;;;;;;5052708;28;20735;-67
2022/08/03 05:52:41;;;;;;;3.90;3.50;;;20.20;99.90;;;;;;5050557;28;20720;-67
2022/08/03 05:55:09;;;;;;;6.33;3.70;;;20.40;99.90;;;;;;5053265;28;20195;-68
2022/08/03 05:57:38;;;;;;;4.90;3.77;;;20.40;99.90;;;;;;5052321;28;20203;-68
2022/08/03 06:00:10;;;;;;;5.03;3.90;;;20.40;99.90;;;;;;5048193;28;20199;-67
2022/08/03 06:02:38;;;;;;;5.20;3.55;;;20.60;99.90;;;;;;5051928;28;20195;-68
2022/08/03 06:05:06;;;;;;;5.63;3.13;;;20.80;99.90;;;;;;5053182;28;20202;-68
2022/08/03 06:07:32;;;;;;;6.70;3.75;;;20.90;99.90;;;;;;5052986;28;20195;-68
2022/08/03 06:10:01;;;;;;;7.53;3.30;;;21.00;99.90;;;;;;5046612;28;20215;-68
2022/08/03 06:12:48;;;;;;;6.25;3.88;;;21.10;99.90;;;;;;5050778;28;20199;-68
2022/08/03 06:15:15;;;;;;;5.28;3.80;;;21.10;99.90;;;;;;5053194;28;20194;-67
2022/08/03 06:17:46;;;;;;;7.53;3.88;;;21.10;99.90;;;;;;5048714;28;20191;-68
2022/08/03 06:20:15;;;;;;;5.60;3.95;;;21.10;99.90;;;;;;5052245;28;20654;-68
2022/08/03 06:22:42;;;;;;;5.88;3.85;;;21.10;99.90;;;;;;5051732;28;20217;-68
2022/08/03 06:25:26;;;;;;;7.30;3.97;;;21.20;99.90;;;;;;5048841;28;20532;-68
2022/08/03 06:27:52;;;;;;;5.30;3.90;;;21.20;99.90;;;;;;5052226;28;20202;-68
2022/08/03 06:30:19;;;;;;;7.68;4.00;;;21.30;99.90;;;;;;5045723;28;20639;-68
2022/08/03 06:32:47;;;;;;;6.22;3.75;;;21.40;99.90;;;;;;5052292;28;20207;-68
2022/08/03 06:35:18;;;;;;;7.65;3.95;;;21.60;99.90;;;;;;5046687;28;20202;-68
2022/08/03 06:37:49;;;;;;;7.05;3.92;;;21.70;99.90;;;;;;5051587;28;20198;-68
2022/08/03 06:40:30;;;;;;;4.32;3.90;;;21.80;99.90;;;;;;5052056;28;20248;-67
2022/08/03 06:42:58;;;;;;;5.45;3.47;;;21.90;99.90;;;;;;5050572;28;20209;-68
2022/08/03 06:45:25;;;;;;;4.95;3.38;;;22.10;99.90;;;;;;5051991;28;20198;-67
2022/08/03 06:48:09;;;;;;;4.88;3.70;;;22.10;99.90;;;;;;5051978;28;20290;-68
2022/08/03 06:50:37;;;;;;;4.38;3.25;;;22.10;99.90;;;;;;5049167;28;20226;-68
2022/08/03 06:53:04;;;;;;;6.88;3.40;;;22.20;99.90;;;;;;5052026;28;20523;-67
2022/08/03 06:55:31;;;;;;;5.78;3.45;;;22.20;99.90;;;;;;5051211;28;20195;-68
2022/08/03 06:57:58;;;;;;;4.68;3.13;;;22.30;99.90;;;;;;5050859;28;20199;-68
2022/08/03 07:00:29;;;;;;;6.13;3.38;;;22.50;99.90;;;;;;5041658;28;20225;-68
2022/08/03 07:02:56;;;;;;;6.03;3.25;;;22.80;99.90;;;;;;5051711;28;20217;-68
2022/08/03 07:05:24;;;;;;;6.05;3.20;;;22.90;99.90;;;;;;5051749;28;20685;-68
2022/08/03 07:07:55;;;;;;;4.90;3.30;;;23.10;99.90;;;;;;5051645;28;20696;-68
2022/08/03 07:10:22;;;;;;;4.65;3.30;;;23.30;99.90;;;;;;5045941;28;20227;-67
2022/08/03 07:12:48;;;;;;;5.38;3.15;;;23.40;99.90;;;;;;5051070;28;20199;-68
2022/08/03 07:15:22;;;;;;;3.88;2.90;;;23.80;99.90;;;;;;5043204;28;20191;-68
2022/08/03 07:18:09;;;;;;;4.78;3.00;;;24.50;99.90;;;;;;5045938;28;20249;-68
2022/08/03 07:20:35;;;;;;;3.30;2.63;;;25.50;99.90;;;;;;5051335;28;20295;-68
2022/08/03 07:23:02;;;;;;;5.40;2.88;;;26.40;99.90;;;;;;5051969;28;20195;-68
2022/08/03 07:25:29;;;;;;;3.88;2.80;;;27.20;99.90;;;;;;5051717;28;20206;-68
2022/08/03 07:27:55;;;;;;;3.05;2.53;;;27.50;99.90;;;;;;5045018;28;20210;-69
2022/08/03 07:30:23;;;;;;;3.20;2.60;;;27.80;99.90;;;;;;5050843;28;20273;-69
2022/08/03 07:32:50;;;;;;;5.10;2.45;;;27.60;99.90;;;;;;5051009;28;20214;-68
2022/08/03 07:35:17;;;;;;;3.72;2.78;;;28.10;99.90;;;;;;5048087;28;20202;-69
2022/08/03 07:37:51;;;;;;;6.60;2.80;;;28.40;99.90;;;;;;5049803;28;20210;-69
2022/08/03 07:40:20;;;;;;;5.10;3.08;;;28.70;99.90;;;;;;5050640;28;20222;-68
2022/08/03 07:42:47;;;;;;;4.78;2.85;;;28.70;99.90;;;;;;5049146;28;20744;-69
2022/08/03 07:45:22;;;;;;;4.38;2.88;;;28.70;99.90;;;;;;5050073;28;20206;-68
2022/08/03 07:47:49;;;;;;;7.45;2.70;;;28.90;99.90;;;;;;5049397;28;20203;-69
2022/08/03 07:50:19;;;;;;;5.45;2.75;;;28.60;99.90;;;;;;5050331;28;20284;-69
2022/08/03 07:52:50;;;;;;;4.45;2.72;;;28.80;99.90;;;;;;5050555;28;20191;-69
2022/08/03 07:55:23;;;;;;;4.30;2.72;;;29.00;99.90;;;;;;5049476;28;20198;-69
2022/08/03 07:58:03;;;;;;;5.15;2.58;;;29.10;99.90;;;;;;5049124;28;20218;-69
2022/08/03 08:00:30;;;;;;;4.90;2.70;;;29.00;99.90;;;;;;5050111;28;20218;-68
2022/08/03 08:02:57;;;;;;;3.95;2.90;;;29.00;99.90;;;;;;5050392;28;20214;-69
2022/08/03 08:05:24;;;;;;;5.45;2.88;;;28.90;99.90;;;;;;5046386;28;20206;-69
2022/08/03 08:07:51;;;;;;;7.10;2.95;;;28.80;99.90;;;;;;5052504;28;20202;-69
2022/08/03 08:10:18;;;;;;;3.40;2.97;;;28.80;99.90;;;;;;5049527;28;20563;-69
2022/08/03 08:12:46;;;;;;;6.15;2.78;;;28.80;99.90;;;;;;5047646;28;20199;-69
2022/08/03 08:15:13;;;;;;;4.22;2.78;;;28.90;99.90;;;;;;5049724;28;20187;-69
2022/08/03 08:17:44;;;;;;;3.70;2.90;;;29.00;99.90;;;;;;5050238;28;20197;-68
2022/08/03 08:20:16;;;;;;;5.90;3.00;;;29.10;99.90;;;;;;5044834;28;20257;-68
2022/08/03 08:22:55;;;;;;;5.63;2.90;;;29.00;99.90;;;;;;5049333;28;20315;-70
2022/08/03 08:25:22;;;;;;;6.88;2.88;;;28.90;99.90;;;;;;5050254;28;20203;-74
2022/08/03 08:27:50;;;;;;;5.60;2.92;;;29.10;99.90;;;;;;5050331;28;20209;-69
2022/08/03 08:30:36;;;;;;;9.30;2.70;;;29.10;99.90;;;;;;5048565;28;20245;-69
2022/08/03 08:33:03;;;;;;;5.20;2.50;;;29.30;99.90;;;;;;5049976;28;20209;-68
2022/08/03 08:35:29;;;;;;;5.40;2.65;;;29.40;99.90;;;;;;5049626;28;20209;-69
2022/08/03 08:37:59;;;;;;;5.35;2.60;;;29.40;99.90;;;;;;5048872;28;20238;-69
2022/08/03 08:40:31;;;;;;;6.95;2.60;;;29.20;99.90;;;;;;5045763;28;20301;-69
2022/08/03 08:42:58;;;;;;;2.97;2.30;;;29.30;99.90;;;;;;5049969;28;20212;-68
2022/08/03 08:45:25;;;;;;;3.40;2.50;;;29.30;99.90;;;;;;5050297;28;20666;-69
2022/08/03 08:47:54;;;;;;;3.28;2.40;;;29.30;99.90;;;;;;5042313;28;20194;-69
2022/08/03 08:50:28;;;;;;;2.65;2.15;;;29.50;99.90;;;;;;5043572;28;20602;-68
2022/08/03 08:52:59;;;;;;;6.07;2.83;;;29.40;99.90;;;;;;5050444;28;20309;-68
2022/08/03 08:55:25;;;;;;;8.75;2.85;;;29.40;99.90;;;;;;5047366;28;20244;-69
2022/08/03 08:58:00;;;;;;;6.35;3.35;;;29.40;99.90;;;;;;5049054;28;20658;-69
2022/08/03 09:00:27;;;;;;;5.35;2.58;;;29.60;99.90;;;;;;5049503;28;20214;-69
2022/08/03 09:02:54;;;;;;;6.82;2.85;;;29.60;99.90;;;;;;5043647;28;20701;-69
2022/08/03 09:05:20;;;;;;;4.13;2.67;;;29.50;99.90;;;;;;5049833;28;20541;-69
2022/08/03 09:08:07;;;;;;;5.75;2.70;;;29.60;99.90;;;;;;5050173;28;20195;-69
2022/08/03 09:10:35;;;;;;;3.92;3.00;;;29.70;99.90;;;;;;5047774;28;20728;-69
2022/08/03 09:13:01;;;;;;;3.58;2.90;;;29.80;99.90;;;;;;5049934;28;20241;-69
2022/08/03 09:15:31;;;;;;;4.68;2.95;;;29.90;99.90;;;;;;5049857;28;20198;-68
2022/08/03 09:18:01;;;;;;;7.22;2.80;;;30.10;99.90;;;;;;5048523;28;20325;-69
2022/08/03 09:20:31;;;;;;;4.38;2.63;;;30.20;99.90;;;;;;5049217;28;20214;-69
2022/08/03 09:23:00;;;;;;;3.75;2.70;;;30.20;99.90;;;;;;5053083;28;20195;-69
2022/08/03 09:25:32;;;;;;;3.65;2.65;;;30.00;99.90;;;;;;5046505;28;20203;-69
2022/08/03 09:28:16;;;;;;;4.50;2.60;;;30.00;99.90;;;;;;5052906;28;20199;-70
2022/08/03 09:31:03;;;;;;;3.33;2.42;;;30.20;99.90;;;;;;5046075;28;20708;-70
2022/08/03 09:33:30;;;;;;;4.20;2.78;;;30.20;99.90;;;;;;5052370;28;20202;-68
2022/08/03 09:36:01;;;;;;;3.45;2.25;;;30.30;99.90;;;;;;5053600;28;20195;-69
2022/08/03 09:38:28;;;;;;;4.60;2.53;;;30.50;99.90;;;;;;5053355;28;20210;-69
2022/08/03 09:40:56;;;;;;;3.15;2.40;;;30.70;99.90;;;;;;5048914;28;20210;-67
2022/08/03 09:43:26;;;;;;;2.60;2.40;;;30.80;99.90;;;;;;5052920;28;20191;-68
2022/08/03 09:46:03;;;;;;;3.42;2.40;;;31.20;99.90;;;;;;5053446;28;20191;-69
2022/08/03 09:48:31;;;;;;;4.25;2.28;;;31.10;99.90;;;;;;5047457;28;20203;-70
2022/08/03 09:51:00;;;;;;;3.08;2.38;;;31.10;99.90;;;;;;5052899;28;20222;-68
2022/08/03 09:53:47;;;;;;;2.97;2.50;;;31.20;99.90;;;;;;5052948;28;20195;-69
2022/08/03 09:56:46;;;;;;;3.38;2.70;;;31.40;99.90;;;;;;5052925;28;20218;-70
2022/08/03 09:59:22;;;;;;;2.50;2.13;;;31.50;99.50;;;;;;5048263;28;20206;-70
2022/08/03 10:01:49;;;;;;;4.57;2.20;;;31.70;98.90;;;;;;5052472;28;20356;-69
2022/08/03 10:04:16;;;;;;;3.53;2.53;;;31.70;99.30;;;;;;5052770;28;20256;-68
2022/08/03 10:06:44;;;;;;;3.40;2.50;;;31.90;99.10;;;;;;5050938;28;20278;-70
2022/08/03 10:09:15;;;;;;;4.88;2.30;;;32.10;99.00;;;;;;5052863;28;20603;-70
2022/08/03 10:11:45;;;;;;;4.82;2.40;;;32.30;97.90;;;;;;5052596;28;20211;-68
2022/08/03 10:14:18;;;;;;;2.60;2.40;;;32.40;97.80;;;;;;5049976;28;20655;-69
2022/08/03 10:16:47;;;;;;;2.53;2.33;;;32.50;97.90;;;;;;5052868;28;20265;-68
2022/08/03 10:19:14;;;;;;;3.40;2.53;;;32.50;98.40;;;;;;5052728;28;20198;-67
2022/08/03 10:22:02;;;;;;;3.05;2.63;;;32.60;98.80;;;;;;5052146;28;20602;-69
2022/08/03 10:24:32;;;;;;;3.22;2.40;;;32.70;97.90;;;;;;5049555;28;20194;-69
2022/08/03 10:27:07;;;;;;;5.57;4.25;;;32.60;97.00;;;;;;5052610;28;20202;-69
2022/08/03 10:29:37;;;;;;;6.80;2.55;;;32.60;97.20;;;;;;5052165;28;20203;-69
2022/08/03 10:32:13;;;;;;;4.55;2.35;;;32.70;97.20;;;;;;5037753;28;20223;-68
2022/08/03 10:34:41;;;;;;;2.50;2.30;;;32.80;97.40;;;;;;5051820;28;20268;-70
2022/08/03 10:37:14;;;;;;;4.35;2.22;;;32.90;96.00;;;;;;5052455;28;20273;-68
2022/08/03 10:39:52;;;;;;;2.15;1.95;;;32.50;95.00;;;;;;5050663;28;20203;-69
2022/08/03 10:42:27;;;;;;;3.70;2.17;;;32.30;96.20;;;;;;5052489;28;20298;-69
2022/08/03 10:45:05;;;;;;;2.33;2.10;;;32.20;96.00;;;;;;5052169;28;20194;-69
2022/08/03 10:47:33;;;;;;;3.65;2.20;;;32.30;95.50;;;;;;5052190;28;20191;-69
2022/08/03 10:50:01;;;;;;;2.40;2.20;;;32.00;95.40;;;;;;5043255;28;20221;-69
2022/08/03 10:52:27;;;;;;;2.58;2.35;;;32.10;95.90;;;;;;5051881;28;20217;-69
2022/08/03 10:58:35;;;;;;;3.83;2.40;;;32.40;95.60;;;;;;5045617;28;20249;-69
2022/08/03 11:01:03;;;;;;;3.33;2.20;;;32.60;95.60;;;;;;5043495;28;20222;-69
2022/08/03 11:03:31;;;;;;;4.65;2.70;;;32.70;95.30;;;;;;5051944;28;20214;-69
2022/08/03 11:06:19;;;;;;;4.38;2.60;;;32.70;94.90;;;;;;5049248;28;20201;-69
2022/08/03 11:08:46;;;;;;;2.92;2.45;;;32.80;95.70;;;;;;5051391;28;20203;-69
2022/08/03 11:11:16;;;;;;;4.40;2.40;;;33.10;95.40;;;;;;5050986;28;20249;-69
2022/08/03 11:14:06;;;;;;;2.83;2.53;;;33.40;95.70;;;;;;5048194;28;20701;-70
2022/08/03 11:16:36;;;;;;;3.22;2.38;;;33.60;94.70;;;;;;5051370;28;20206;-68
2022/08/03 11:19:05;;;;;;;4.63;2.40;;;33.70;94.40;;;;;;5043763;28;20580;-68
2022/08/03 11:21:50;;;;;;;2.33;2.10;;;33.80;94.90;;;;;;5045515;28;20219;-69
2022/08/03 11:24:35;;;;;;;4.60;2.40;;;34.00;94.00;;;;;;5045412;28;20198;-69
2022/08/03 11:27:17;;;;;;;4.05;2.10;;;34.10;93.70;;;;;;5050126;28;20205;-70
2022/08/03 11:30:01;;;;;;;8.63;2.33;;;34.20;93.40;;;;;;5049227;28;20203;-69
2022/08/03 11:32:37;;;;;;;2.20;2.00;;;34.30;93.00;;;;;;5050772;28;20202;-69
2022/08/03 11:35:08;;;;;;;2.55;2.10;;;34.40;92.80;;;;;;5043563;28;20281;-69
2022/08/03 11:37:35;;;;;;;3.85;2.10;;;34.40;92.80;;;;;;5047820;28;20552;-70
2022/08/03 11:40:03;;;;;;;5.53;2.10;;;34.40;92.10;;;;;;5050632;28;20195;-69
2022/08/03 11:42:32;;;;;;;3.13;2.30;;;34.50;92.90;;;;;;5051673;28;20211;-70
2022/08/03 11:44:59;;;;;;;4.03;2.30;;;34.40;92.00;;;;;;5050528;28;20654;-69
2022/08/03 11:47:28;;;;;;;2.53;2.33;;;34.40;92.20;;;;;;5047820;28;20256;-69
2022/08/03 11:49:59;;;;;;;3.15;2.38;;;34.50;92.50;;;;;;5050467;28;20553;-68
2022/08/03 11:52:26;;;;;;;2.28;2.08;;;34.40;92.50;;;;;;5050418;28;20195;-69
2022/08/03 11:54:54;;;;;;;3.90;2.20;;;34.50;92.00;;;;;;5049832;28;20202;-69
2022/08/03 11:57:33;;;;;;;3.83;2.25;;;34.50;92.50;;;;;;5050780;28;20191;-70
2022/08/03 12:00:29;;;;;;;2.55;2.13;;;34.50;91.80;;;;;;5044413;28;20253;-69
2022/08/03 12:03:02;;;;;;;3.80;2.20;;;34.50;91.50;;;;;;5049353;28;20206;-70
2022/08/03 12:05:49;;;;;;;4.03;2.40;;;34.50;92.20;;;;;;5046432;28;20633;-69
2022/08/03 12:08:27;;;;;;;4.57;2.50;;;34.70;91.90;;;;;;5045122;28;20219;-69
2022/08/03 12:10:55;;;;;;;2.20;2.10;;;34.80;91.90;;;;;;5049461;28;20229;-69
2022/08/03 12:13:22;;;;;;;2.53;2.33;;;34.80;91.60;;;;;;5050178;28;20194;-69
2022/08/03 12:16:15;;;;;;;4.40;2.30;;;34.80;91.40;;;;;;5042703;28;20621;-69
2022/08/03 12:18:42;;;;;;;2.30;2.10;;;34.60;91.20;;;;;;5050142;28;20199;-69
2022/08/03 12:21:10;;;;;;;4.57;2.80;;;34.50;91.00;;;;;;5048897;28;20214;-69
2022/08/03 12:23:38;;;;;;;3.60;2.65;;;34.50;91.50;;;;;;5050321;28;20199;-70
2022/08/03 12:26:07;;;;;;;2.13;2.00;;;34.70;91.30;;;;;;5050196;28;20203;-69
2022/08/03 12:28:34;;;;;;;2.92;2.13;;;34.70;91.20;;;;;;5049599;28;20229;-70
2022/08/03 12:31:08;;;;;;;2.97;2.38;;;34.50;91.30;;;;;;5049439;28;20225;-70
2022/08/03 12:33:56;;;;;;;2.30;2.10;;;34.40;90.80;;;;;;5050271;28;20207;-68
2022/08/03 12:36:25;;;;;;;2.40;2.20;;;34.40;90.70;;;;;;5044813;28;20206;-69
2022/08/03 12:38:59;;;;;;;3.30;2.08;;;34.40;90.80;;;;;;5033158;28;20202;-69
2022/08/03 12:41:30;;;;;;;2.20;2.00;;;34.30;90.90;;;;;;5050002;28;20218;-69
2022/08/03 12:43:57;;;;;;;3.58;2.00;;;34.10;90.40;;;;;;5050211;28;20198;-69
2022/08/03 12:46:32;;;;;;;2.30;2.10;;;34.00;90.70;;;;;;5047130;28;20265;-69
2022/08/03 12:49:14;;;;;;;2.75;2.50;;;34.20;91.50;;;;;;5049151;28;20202;-69
2022/08/03 12:51:41;;;;;;;4.13;2.70;;;34.40;91.20;;;;;;5049471;28;20226;-69
2022/08/03 12:54:08;;;;;;;4.30;2.47;;;34.70;91.00;;;;;;5050025;28;20194;-69
2022/08/03 12:56:56;;;;;;;2.53;2.03;;;34.80;91.10;;;;;;5049633;28;20199;-69
2022/08/03 12:59:25;;;;;;;3.45;2.38;;;34.90;91.10;;;;;;5049143;28;20191;-69
2022/08/03 13:02:03;;;;;;;3.28;2.03;;;35.00;90.80;;;;;;5052596;28;20279;-69
2022/08/03 13:04:35;;;;;;;3.20;1.98;;;35.00;90.20;;;;;;5035058;28;20240;-69
2022/08/03 13:07:06;;;;;;;5.20;2.22;;;35.00;90.40;;;;;;5053594;28;20209;-68
2022/08/03 13:09:48;;;;;;;5.28;2.70;;;35.20;90.60;;;;;;5053869;28;20293;-69
2022/08/03 13:12:17;;;;;;;5.45;2.45;;;35.20;90.40;;;;;;5046687;28;20779;-69
2022/08/03 13:14:48;;;;;;;3.15;2.20;;;35.30;90.70;;;;;;5054090;28;20206;-68
2022/08/03 13:17:15;;;;;;;3.78;2.47;;;35.40;90.40;;;;;;5054006;28;20198;-69
2022/08/03 13:19:43;;;;;;;4.05;2.80;;;35.40;89.90;;;;;;5052890;28;20199;-69
2022/08/03 13:22:14;;;;;;;5.32;2.42;;;35.40;90.10;;;;;;5037256;28;20222;-69